Point Washington, Florida
Current Conditions -  °F | °C
As of 8:53 PM on Sunday 21 Dec 2014 (Local Time) from KECP Reporting Station
Light Rain Light Rain  
Wind Chill: 56°   Ceiling: 300
Heat Index: 56°   Visibility: 2mi
Dew Point: 54°   Wind: 3mph
Humidity: 93%   Direction: 60°ENE
Pressure: 30.02"   Gusts: NA
Location:  30.37°N, 86.11°W
Report Text: KECP 220253Z 06003KT 2SM -RA BR OVC003 13/12 A3002 RMK AO2 SLP176 P0001 60001 T01330122 55003 $
Loading
Personal Weather Stations






























Interactive Weather Map New forecast layout! Learn more

10-Day Weather Forecast

Advertisements
Track Severe Weather on mobile